createdAt,value
2023-01-27T00:00:53.742Z,19.87
2023-01-27T00:03:20.576Z,18.30
2023-01-27T00:05:47.675Z,31.63
2023-01-27T00:08:14.889Z,24.07
2023-01-27T00:10:43.521Z,17.67
2023-01-27T00:13:31.947Z,19.97
2023-01-27T00:15:58.408Z,18.50
2023-01-27T00:18:25.726Z,26.70
2023-01-27T00:21:11.338Z,22.10
2023-01-27T00:23:56.622Z,21.43
2023-01-27T00:26:23.307Z,19.40
2023-01-27T00:28:49.817Z,15.30
2023-01-27T00:31:36.115Z,16.70
2023-01-27T00:34:08.978Z,23.37
2023-01-27T00:36:37.877Z,23.53
2023-01-27T00:39:05.907Z,23.10
2023-01-27T00:41:34.045Z,27.23
2023-01-27T00:44:01.444Z,18.93
2023-01-27T00:46:28.149Z,20.90
2023-01-27T00:48:55.340Z,23.60
2023-01-27T00:51:21.963Z,21.63
2023-01-27T00:53:48.783Z,20.30
2023-01-27T00:56:15.722Z,23.33
2023-01-27T00:58:42.453Z,18.13
2023-01-27T01:01:11.774Z,29.27
2023-01-27T01:03:38.302Z,22.20
2023-01-27T01:06:07.951Z,22.87
2023-01-27T01:08:36.059Z,22.97
2023-01-27T01:11:03.142Z,22.17
2023-01-27T01:13:29.996Z,33.40
2023-01-27T01:15:57.263Z,21.07
2023-01-27T01:18:24.286Z,27.87
2023-01-27T01:20:50.762Z,29.03
2023-01-27T01:23:17.550Z,23.37
2023-01-27T01:25:53.807Z,20.60
2023-01-27T01:28:20.446Z,26.70
2023-01-27T01:30:47.132Z,21.77
2023-01-27T01:33:14.067Z,20.63
2023-01-27T01:35:40.811Z,30.50
2023-01-27T01:38:07.250Z,24.83
2023-01-27T01:40:34.222Z,23.73
2023-01-27T01:43:06.992Z,21.53
2023-01-27T01:45:36.809Z,21.00
2023-01-27T01:48:16.824Z,23.43
2023-01-27T01:50:48.439Z,21.90
2023-01-27T01:53:15.217Z,21.50
2023-01-27T01:55:42.225Z,19.43
2023-01-27T01:58:11.847Z,23.47
2023-01-27T02:00:38.475Z,21.53
2023-01-27T02:03:05.034Z,24.63
2023-01-27T02:05:36.256Z,26.80
2023-01-27T02:08:21.248Z,23.23
2023-01-27T02:10:48.041Z,24.20
2023-01-27T02:13:14.480Z,23.00
2023-01-27T02:15:41.155Z,23.50
2023-01-27T02:18:07.801Z,27.20
2023-01-27T02:20:46.288Z,28.77
2023-01-27T02:23:21.372Z,28.40
2023-01-27T02:26:00.544Z,27.60
2023-01-27T02:28:29.814Z,23.80
2023-01-27T02:30:57.278Z,23.77
2023-01-27T02:33:24.328Z,21.77
2023-01-27T02:35:50.763Z,17.90
2023-01-27T02:38:19.580Z,17.07
2023-01-27T02:40:50.271Z,16.27
2023-01-27T02:43:16.685Z,15.63
2023-01-27T02:45:45.664Z,15.60
2023-01-27T02:48:12.070Z,18.83
2023-01-27T02:50:38.553Z,15.60
2023-01-27T02:53:05.503Z,17.67
2023-01-27T02:55:31.926Z,19.37
2023-01-27T02:57:58.541Z,17.70
2023-01-27T03:00:25.088Z,23.03
2023-01-27T03:02:51.501Z,20.57
2023-01-27T03:05:17.894Z,21.00
2023-01-27T03:07:44.353Z,24.50
2023-01-27T03:10:11.113Z,21.37
2023-01-27T03:12:37.715Z,20.20
2023-01-27T03:15:22.982Z,23.90
2023-01-27T03:18:07.686Z,23.90
2023-01-27T03:20:34.145Z,25.30
2023-01-27T03:23:00.726Z,27.47
2023-01-27T03:25:27.180Z,24.53
2023-01-27T03:27:53.605Z,22.30
2023-01-27T03:30:20.222Z,23.87
2023-01-27T03:32:46.833Z,19.70
2023-01-27T03:35:17.312Z,25.23
2023-01-27T03:38:02.870Z,22.53
2023-01-27T03:40:48.188Z,18.63
2023-01-27T03:43:32.954Z,21.20
2023-01-27T03:46:20.479Z,20.40
2023-01-27T03:48:55.301Z,23.20
2023-01-27T03:51:24.534Z,19.50
2023-01-27T03:53:50.984Z,18.83
2023-01-27T03:56:19.607Z,17.27
2023-01-27T03:58:48.532Z,18.57
2023-01-27T04:01:20.688Z,15.87
2023-01-27T04:04:06.865Z,19.87
2023-01-27T04:06:55.231Z,17.20
2023-01-27T04:09:33.957Z,17.77
2023-01-27T04:12:04.420Z,17.00
2023-01-27T04:14:38.917Z,17.57
2023-01-27T04:17:10.872Z,15.50
2023-01-27T04:19:37.627Z,16.17
2023-01-27T04:22:05.704Z,17.90
2023-01-27T04:24:33.061Z,16.83
2023-01-27T04:27:04.802Z,15.83
2023-01-27T04:29:36.220Z,16.97
2023-01-27T04:32:04.419Z,20.87
2023-01-27T04:34:30.946Z,17.80
2023-01-27T04:36:58.039Z,25.77
2023-01-27T04:39:25.454Z,18.17
2023-01-27T04:41:51.966Z,19.73
2023-01-27T04:44:21.737Z,18.03
2023-01-27T04:46:48.984Z,18.87
2023-01-27T04:49:15.699Z,18.97
2023-01-27T04:51:42.412Z,23.97
2023-01-27T04:54:09.151Z,22.27
2023-01-27T04:56:42.395Z,23.10
2023-01-27T04:59:12.569Z,20.97
2023-01-27T05:01:39.039Z,23.27
2023-01-27T05:04:05.596Z,21.97
2023-01-27T05:06:32.246Z,21.77
2023-01-27T05:08:58.798Z,20.00
2023-01-27T05:11:25.361Z,23.10
2023-01-27T05:13:51.805Z,19.17
2023-01-27T05:16:23.523Z,21.20
2023-01-27T05:18:51.663Z,26.93
2023-01-27T05:21:23.940Z,23.20
2023-01-27T05:23:50.625Z,19.50
2023-01-27T05:26:23.072Z,21.60
2023-01-27T05:28:50.843Z,24.20
2023-01-27T05:31:21.217Z,23.23
2023-01-27T05:33:50.864Z,18.70
2023-01-27T05:36:19.727Z,19.83
2023-01-27T05:38:46.786Z,20.90
2023-01-27T05:41:15.084Z,20.30
2023-01-27T05:43:43.559Z,24.03
2023-01-27T05:46:13.277Z,19.47
2023-01-27T05:48:42.575Z,20.87
2023-01-27T05:51:09.732Z,20.80
2023-01-27T05:53:36.480Z,20.63
2023-01-27T05:56:04.145Z,27.07
2023-01-27T05:58:31.371Z,22.07
2023-01-27T06:01:09.730Z,21.77
2023-01-27T06:03:37.002Z,24.20
2023-01-27T06:06:04.015Z,27.87
2023-01-27T06:08:31.178Z,23.43
2023-01-27T06:10:58.865Z,27.07
2023-01-27T06:13:25.848Z,26.30
2023-01-27T06:15:52.807Z,28.03
2023-01-27T06:18:19.567Z,27.83
2023-01-27T06:20:46.292Z,33.43
2023-01-27T06:23:14.834Z,32.30
2023-01-27T06:25:47.677Z,28.00
2023-01-27T06:28:28.123Z,23.60
2023-01-27T06:30:56.392Z,21.17
2023-01-27T06:33:23.216Z,20.80
2023-01-27T06:35:49.654Z,22.20
2023-01-27T06:38:16.103Z,23.40
2023-01-27T06:40:43.244Z,22.20
2023-01-27T06:43:13.865Z,18.57
2023-01-27T06:45:40.841Z,24.53
2023-01-27T06:48:08.576Z,28.80
2023-01-27T06:50:36.043Z,20.50
2023-01-27T06:53:05.690Z,26.10
2023-01-27T06:55:32.404Z,20.57
2023-01-27T06:57:59.311Z,20.93
2023-01-27T07:00:25.849Z,21.93
2023-01-27T07:02:55.709Z,21.87
2023-01-27T07:05:22.232Z,20.50
2023-01-27T07:07:48.692Z,22.37
2023-01-27T07:10:15.910Z,21.87
2023-01-27T07:12:42.707Z,21.37
2023-01-27T07:15:10.491Z,23.60
2023-01-27T07:17:37.453Z,23.20
2023-01-27T07:20:06.437Z,23.73
2023-01-27T07:22:32.920Z,23.93
2023-01-27T07:24:59.507Z,19.77
2023-01-27T07:27:26.223Z,19.90
2023-01-27T07:29:52.745Z,22.43
2023-01-27T07:32:19.218Z,21.73
2023-01-27T07:34:45.766Z,20.97
2023-01-27T07:37:13.191Z,20.80
2023-01-27T07:39:39.726Z,21.20
2023-01-27T07:42:06.724Z,23.50
2023-01-27T07:44:33.292Z,19.63
2023-01-27T07:46:59.940Z,20.00
2023-01-27T07:49:27.614Z,22.30
2023-01-27T07:51:54.398Z,22.37
2023-01-27T07:54:20.945Z,20.00
2023-01-27T07:56:47.414Z,20.70
2023-01-27T07:59:14.107Z,20.40
2023-01-27T08:01:41.788Z,19.27
2023-01-27T08:04:08.596Z,18.53
2023-01-27T08:06:35.190Z,18.87
2023-01-27T08:09:01.773Z,19.03
2023-01-27T08:11:28.363Z,19.40
2023-01-27T08:13:54.805Z,19.73
2023-01-27T08:16:21.332Z,18.30
2023-01-27T08:18:47.832Z,18.30
2023-01-27T08:21:14.288Z,18.10
2023-01-27T08:23:40.771Z,17.13
2023-01-27T08:26:07.809Z,18.20
2023-01-27T08:28:37.443Z,22.03
2023-01-27T08:31:04.806Z,15.07
2023-01-27T08:33:31.640Z,17.20
2023-01-27T08:36:06.469Z,18.70
2023-01-27T08:38:34.440Z,14.43
2023-01-27T08:41:13.788Z,18.40
2023-01-27T08:43:40.974Z,17.47
2023-01-27T08:46:08.615Z,18.03
2023-01-27T08:48:36.165Z,16.93
2023-01-27T08:51:03.722Z,20.87
2023-01-27T08:53:31.204Z,20.80
2023-01-27T08:56:02.527Z,19.70
2023-01-27T08:58:29.035Z,20.27
2023-01-27T09:00:55.487Z,19.97
2023-01-27T09:03:21.993Z,20.80
2023-01-27T09:05:48.492Z,23.63
2023-01-27T09:08:15.936Z,20.00
2023-01-27T09:10:42.984Z,17.80
2023-01-27T09:13:09.470Z,17.90
2023-01-27T09:15:37.201Z,21.67
2023-01-27T09:18:06.612Z,20.37
2023-01-27T09:20:34.502Z,19.10
2023-01-27T09:23:02.389Z,23.00
2023-01-27T09:25:28.871Z,17.90
2023-01-27T09:27:56.858Z,19.93
2023-01-27T09:30:24.496Z,18.60
2023-01-27T09:32:51.151Z,17.83
2023-01-27T09:35:18.106Z,18.37
2023-01-27T09:37:54.170Z,18.27
2023-01-27T09:40:36.060Z,23.07
2023-01-27T09:43:36.535Z,17.30
2023-01-27T09:46:42.131Z,20.67
2023-01-27T09:49:23.959Z,17.43
2023-01-27T09:52:17.162Z,18.43
2023-01-27T09:54:55.740Z,19.03
2023-01-27T09:57:37.498Z,18.87
2023-01-27T10:00:32.806Z,19.60
2023-01-27T10:03:13.366Z,19.60
2023-01-27T10:05:53.132Z,18.13
2023-01-27T10:08:37.355Z,20.47
2023-01-27T10:11:42.367Z,18.23
2023-01-27T10:14:20.982Z,18.30
2023-01-27T10:16:51.805Z,18.17
2023-01-27T10:19:45.658Z,16.47
2023-01-27T10:22:17.703Z,17.43
2023-01-27T10:25:14.132Z,17.27
2023-01-27T10:27:47.345Z,16.37
2023-01-27T10:30:21.314Z,15.33
2023-01-27T10:32:57.500Z,15.23
2023-01-27T10:35:31.836Z,15.53
2023-01-27T10:38:03.894Z,17.70
2023-01-27T10:40:58.420Z,15.27
2023-01-27T10:43:39.171Z,16.73
2023-01-27T10:46:13.426Z,15.93
2023-01-27T10:49:05.173Z,22.00
2023-01-27T10:51:44.010Z,16.50
2023-01-27T10:54:30.701Z,16.43
2023-01-27T10:57:04.399Z,16.37
2023-01-27T11:00:21.975Z,16.90
2023-01-27T11:03:28.443Z,16.87
2023-01-27T11:06:02.287Z,15.20
2023-01-27T11:08:35.896Z,15.40
2023-01-27T11:11:25.997Z,14.70
2023-01-27T11:14:02.707Z,18.63
2023-01-27T11:16:35.457Z,14.23
2023-01-27T11:19:14.401Z,16.10
2023-01-27T11:21:41.816Z,19.23
2023-01-27T11:24:21.865Z,16.80
2023-01-27T11:27:03.687Z,16.57
2023-01-27T11:29:42.993Z,20.93
2023-01-27T11:32:41.866Z,21.53
2023-01-27T11:35:16.417Z,18.30
2023-01-27T11:37:45.420Z,18.10
2023-01-27T11:40:25.477Z,18.47
2023-01-27T11:42:52.340Z,17.40
2023-01-27T11:45:21.007Z,20.77
2023-01-27T11:47:52.810Z,18.43
2023-01-27T11:50:22.074Z,20.27
2023-01-27T11:52:55.067Z,17.80
2023-01-27T11:55:28.300Z,17.50
2023-01-27T11:58:08.886Z,18.60
2023-01-27T12:00:44.088Z,19.67
2023-01-27T12:03:13.599Z,17.97
2023-01-27T12:05:48.004Z,20.60
2023-01-27T12:08:36.927Z,17.43
2023-01-27T12:11:16.550Z,17.40
2023-01-27T12:14:04.389Z,18.37
2023-01-27T12:16:39.847Z,19.70
2023-01-27T12:19:21.806Z,16.80
2023-01-27T12:21:52.229Z,18.67
2023-01-27T12:24:30.649Z,17.30
2023-01-27T12:26:58.503Z,21.77
2023-01-27T12:29:41.415Z,19.30
2023-01-27T12:32:23.525Z,17.20
2023-01-27T12:34:56.534Z,17.37
2023-01-27T12:37:33.745Z,16.70
2023-01-27T12:40:03.550Z,18.33
2023-01-27T12:42:42.519Z,21.57
2023-01-27T12:45:18.314Z,18.47
2023-01-27T12:48:10.130Z,18.67
2023-01-27T12:50:41.972Z,19.50
2023-01-27T12:53:08.343Z,19.10
2023-01-27T12:55:52.255Z,19.87
2023-01-27T12:58:37.456Z,18.67
2023-01-27T13:01:18.504Z,20.60
2023-01-27T13:03:45.632Z,19.20
2023-01-27T13:06:16.625Z,17.90
2023-01-27T13:08:44.156Z,18.00
2023-01-27T13:11:11.637Z,18.67
2023-01-27T13:13:48.808Z,16.07
2023-01-27T13:16:25.680Z,15.43
2023-01-27T13:18:58.103Z,18.40
2023-01-27T13:21:37.794Z,15.37
2023-01-27T13:24:12.571Z,14.40
2023-01-27T13:26:41.008Z,15.13
2023-01-27T13:29:10.411Z,15.33
2023-01-27T13:31:52.104Z,14.83
2023-01-27T13:34:29.666Z,13.80
2023-01-27T13:37:01.068Z,14.43
2023-01-27T13:40:10.162Z,13.40
2023-01-27T13:42:44.200Z,13.23
2023-01-27T13:45:14.407Z,13.97
2023-01-27T13:47:46.820Z,12.00
2023-01-27T13:50:29.281Z,12.43
2023-01-27T13:52:58.976Z,11.03
2023-01-27T13:55:57.813Z,10.60
2023-01-27T13:58:44.371Z,12.23
2023-01-27T14:01:28.483Z,10.83
2023-01-27T14:04:32.570Z,11.07
2023-01-27T14:07:21.966Z,9.40
2023-01-27T14:10:04.167Z,9.80
2023-01-27T14:13:16.492Z,9.50
2023-01-27T14:15:52.058Z,10.70
2023-01-27T14:18:23.781Z,14.13
2023-01-27T14:21:07.935Z,9.60
2023-01-27T14:24:05.850Z,9.50
2023-01-27T14:26:49.765Z,9.63
2023-01-27T14:29:22.231Z,10.50
2023-01-27T14:32:14.177Z,11.57
2023-01-27T14:34:46.728Z,10.97
2023-01-27T14:37:16.060Z,10.23
2023-01-27T14:39:59.551Z,14.13
2023-01-27T14:42:41.969Z,15.23
2023-01-27T14:45:17.980Z,11.83
2023-01-27T14:47:57.116Z,10.80
2023-01-27T14:50:38.197Z,11.80
2023-01-27T14:53:41.371Z,12.10
2023-01-27T14:56:26.082Z,12.10
2023-01-27T14:59:02.742Z,12.10
2023-01-27T15:01:56.204Z,10.90
2023-01-27T15:04:34.252Z,11.73
2023-01-27T15:07:27.599Z,10.60
2023-01-27T15:10:20.555Z,10.80
2023-01-27T15:12:48.097Z,10.60
2023-01-27T15:15:49.935Z,11.60
2023-01-27T15:18:46.303Z,10.67
2023-01-27T15:21:30.714Z,10.90
2023-01-27T15:24:19.542Z,11.10
2023-01-27T15:26:48.036Z,10.87
2023-01-27T15:29:15.321Z,9.37
2023-01-27T15:31:43.079Z,9.67
2023-01-27T15:34:23.258Z,10.40
2023-01-27T15:37:02.529Z,11.13
2023-01-27T15:39:41.046Z,11.50
2023-01-27T15:42:11.325Z,10.27
2023-01-27T15:44:58.739Z,10.57
2023-01-27T15:47:28.587Z,10.70
2023-01-27T15:50:12.938Z,13.70
2023-01-27T15:52:48.582Z,11.37
2023-01-27T15:55:28.932Z,11.57
2023-01-27T15:58:27.667Z,9.70
2023-01-27T16:00:57.152Z,10.20
2023-01-27T16:03:28.274Z,9.90
2023-01-27T16:06:00.701Z,9.57
2023-01-27T16:08:32.854Z,10.60
2023-01-27T16:11:31.771Z,11.60
2023-01-27T16:14:17.005Z,10.87
2023-01-27T16:17:03.087Z,10.00
2023-01-27T16:19:33.386Z,10.13
2023-01-27T16:22:05.179Z,10.10
2023-01-27T16:24:41.219Z,10.80
2023-01-27T16:27:15.739Z,11.00
2023-01-27T16:29:47.632Z,10.90
2023-01-27T16:32:20.034Z,10.73
2023-01-27T16:34:58.644Z,9.93
2023-01-27T16:37:29.193Z,10.03
2023-01-27T16:40:02.090Z,12.20
2023-01-27T16:42:45.780Z,10.63
2023-01-27T16:45:45.955Z,10.87
2023-01-27T16:48:29.719Z,12.93
2023-01-27T16:51:08.755Z,11.60
2023-01-27T16:53:35.312Z,13.47
2023-01-27T16:56:05.281Z,12.60
2023-01-27T16:58:45.589Z,12.40
2023-01-27T17:01:24.687Z,11.53
2023-01-27T17:03:55.222Z,12.40
2023-01-27T17:06:23.052Z,11.73
2023-01-27T17:08:49.870Z,12.23
2023-01-27T17:11:36.563Z,12.30
2023-01-27T17:14:28.521Z,11.00
2023-01-27T17:16:59.578Z,12.90
2023-01-27T17:19:32.423Z,12.00
2023-01-27T17:22:00.463Z,11.47
2023-01-27T17:24:32.229Z,10.83
2023-01-27T17:27:03.820Z,13.40
2023-01-27T17:29:37.977Z,11.97
2023-01-27T17:32:17.528Z,11.13
2023-01-27T17:34:44.307Z,10.40
2023-01-27T17:37:17.339Z,12.53
2023-01-27T17:39:45.332Z,12.50
2023-01-27T17:42:17.147Z,10.03
2023-01-27T17:44:45.085Z,10.50
2023-01-27T17:47:15.120Z,13.60
2023-01-27T17:49:42.879Z,12.00
2023-01-27T17:52:11.818Z,10.87
2023-01-27T17:54:39.303Z,11.50
2023-01-27T17:57:23.818Z,10.97
2023-01-27T18:00:02.606Z,11.80
2023-01-27T18:02:32.317Z,11.00
2023-01-27T18:05:06.211Z,11.90
2023-01-27T18:07:33.143Z,11.40
2023-01-27T18:09:59.651Z,12.97
2023-01-27T18:12:32.465Z,14.53
2023-01-27T18:15:19.361Z,13.70
2023-01-27T18:17:58.285Z,13.90
2023-01-27T18:20:33.913Z,11.90
2023-01-27T18:23:01.587Z,11.90
2023-01-27T18:25:28.198Z,13.03
2023-01-27T18:27:55.844Z,14.40
2023-01-27T18:30:23.763Z,13.37
2023-01-27T18:33:01.328Z,12.50
2023-01-27T18:35:32.726Z,14.07
2023-01-27T18:38:05.259Z,13.40
2023-01-27T18:40:33.627Z,12.73
2023-01-27T18:43:00.823Z,13.97
2023-01-27T18:45:27.557Z,13.37
2023-01-27T18:47:54.676Z,17.90
2023-01-27T18:50:23.030Z,12.43
2023-01-27T18:52:50.519Z,13.50
2023-01-27T18:55:24.258Z,14.20
2023-01-27T18:57:52.941Z,17.00
2023-01-27T19:00:22.491Z,15.47
2023-01-27T19:02:51.891Z,14.30
2023-01-27T19:05:20.373Z,18.10
2023-01-27T19:07:47.221Z,18.37
2023-01-27T19:10:17.306Z,17.70
2023-01-27T19:12:43.921Z,16.03
2023-01-27T19:15:13.520Z,15.20
2023-01-27T19:17:40.321Z,14.20
2023-01-27T19:20:18.773Z,14.83
2023-01-27T19:22:46.161Z,19.97
2023-01-27T19:25:13.903Z,26.67
2023-01-27T19:27:43.126Z,17.57
2023-01-27T19:30:27.674Z,20.73
2023-01-27T19:32:55.693Z,20.10
2023-01-27T19:35:24.395Z,20.40
2023-01-27T19:37:54.140Z,14.63
2023-01-27T19:40:26.373Z,16.37
2023-01-27T19:42:53.254Z,14.40
2023-01-27T19:45:21.465Z,15.57
2023-01-27T19:47:49.437Z,14.63
2023-01-27T19:50:15.819Z,18.53
2023-01-27T19:52:42.263Z,20.00
2023-01-27T19:55:09.457Z,14.60
2023-01-27T19:57:36.271Z,14.70
2023-01-27T20:00:05.220Z,20.40
2023-01-27T20:02:31.916Z,20.67
2023-01-27T20:04:58.403Z,17.27
2023-01-27T20:07:24.937Z,15.97
2023-01-27T20:09:51.346Z,19.23
2023-01-27T20:12:17.802Z,16.77
2023-01-27T20:14:44.317Z,15.30
2023-01-27T20:17:12.345Z,16.20
2023-01-27T20:19:38.797Z,15.47
2023-01-27T20:22:05.202Z,15.47
2023-01-27T20:24:31.617Z,16.13
2023-01-27T20:26:58.535Z,14.13
2023-01-27T20:29:25.063Z,14.70
2023-01-27T20:31:52.523Z,16.33
2023-01-27T20:34:19.054Z,15.30
2023-01-27T20:36:45.459Z,15.37
2023-01-27T20:39:12.409Z,13.47
2023-01-27T20:41:38.814Z,12.80
2023-01-27T20:44:05.326Z,13.83
2023-01-27T20:46:31.857Z,13.70
2023-01-27T20:48:59.486Z,15.57
2023-01-27T20:51:26.043Z,13.50
2023-01-27T20:53:52.534Z,12.70
2023-01-27T20:56:23.367Z,12.80
2023-01-27T20:58:50.093Z,11.30
2023-01-27T21:01:22.019Z,17.67
2023-01-27T21:03:48.943Z,13.30
2023-01-27T21:06:17.680Z,11.43
2023-01-27T21:08:44.152Z,12.60
2023-01-27T21:11:12.787Z,15.30
2023-01-27T21:13:39.393Z,13.03
2023-01-27T21:16:06.179Z,11.43
2023-01-27T21:18:32.671Z,13.23
2023-01-27T21:21:00.753Z,10.33
2023-01-27T21:23:32.421Z,11.70
2023-01-27T21:26:09.455Z,10.07
2023-01-27T21:28:35.964Z,10.30
2023-01-27T21:31:07.548Z,12.10
2023-01-27T21:33:36.212Z,12.40
2023-01-27T21:36:03.949Z,12.50
2023-01-27T21:38:31.936Z,10.60
2023-01-27T21:41:10.747Z,11.40
2023-01-27T21:43:55.890Z,11.90
2023-01-27T21:46:22.879Z,12.20
2023-01-27T21:48:49.778Z,11.97
2023-01-27T21:51:16.327Z,11.77
2023-01-27T21:53:42.792Z,11.53
2023-01-27T21:56:10.835Z,12.00
2023-01-27T21:58:37.596Z,13.40
2023-01-27T22:01:08.530Z,11.77
2023-01-27T22:03:36.707Z,12.83
2023-01-27T22:06:07.629Z,12.43
2023-01-27T22:08:34.773Z,11.70
2023-01-27T22:11:06.032Z,11.97
2023-01-27T22:13:33.343Z,13.53
2023-01-27T22:16:00.519Z,11.50
2023-01-27T22:18:27.337Z,11.10
2023-01-27T22:20:53.960Z,11.33
2023-01-27T22:23:20.586Z,11.87
2023-01-27T22:25:51.336Z,11.43
2023-01-27T22:28:18.299Z,12.10
2023-01-27T22:30:44.802Z,13.67
2023-01-27T22:33:12.510Z,12.60
2023-01-27T22:35:39.542Z,11.17
2023-01-27T22:38:06.470Z,13.37
2023-01-27T22:40:33.018Z,11.70
2023-01-27T22:42:59.468Z,11.70
2023-01-27T22:45:25.959Z,11.60
2023-01-27T22:47:52.811Z,11.90
2023-01-27T22:50:19.447Z,11.97
2023-01-27T22:52:45.881Z,11.70
2023-01-27T22:55:13.157Z,12.97
2023-01-27T22:57:39.880Z,11.67
2023-01-27T23:00:07.334Z,10.97
2023-01-27T23:02:36.990Z,13.87
2023-01-27T23:05:03.650Z,15.27
2023-01-27T23:07:30.107Z,13.50
2023-01-27T23:09:56.563Z,10.53
2023-01-27T23:12:23.040Z,10.90
2023-01-27T23:14:49.540Z,11.03
2023-01-27T23:17:16.066Z,15.07
2023-01-27T23:19:42.500Z,10.37
2023-01-27T23:22:08.956Z,11.17
2023-01-27T23:24:35.468Z,10.00
2023-01-27T23:27:01.956Z,9.40
2023-01-27T23:29:29.330Z,10.27
2023-01-27T23:31:56.161Z,9.93
2023-01-27T23:34:22.817Z,11.33
2023-01-27T23:36:49.659Z,10.23
2023-01-27T23:39:16.900Z,10.10
2023-01-27T23:41:43.451Z,10.90
2023-01-27T23:44:13.239Z,10.13
2023-01-27T23:46:40.484Z,10.73
2023-01-27T23:49:07.884Z,9.90
2023-01-27T23:51:34.426Z,10.37
2023-01-27T23:54:02.089Z,10.17
2023-01-27T23:56:28.896Z,12.13
2023-01-27T23:58:55.736Z,11.53
